createdAt,value
2018-05-10T00:00:34.205Z,12.00
2018-05-10T00:03:03.210Z,11.30
2018-05-10T00:05:31.496Z,11.20
2018-05-10T00:07:59.393Z,12.30
2018-05-10T00:10:28.034Z,11.10
2018-05-10T00:12:55.922Z,11.10
2018-05-10T00:15:23.436Z,10.60
2018-05-10T00:17:51.342Z,11.20
2018-05-10T00:20:19.628Z,11.10
2018-05-10T00:22:47.912Z,11.00
2018-05-10T00:25:15.412Z,11.70
2018-05-10T00:27:42.914Z,10.70
2018-05-10T00:30:11.198Z,10.90
2018-05-10T00:32:38.759Z,10.60
2018-05-10T00:35:06.276Z,10.80
2018-05-10T00:37:34.166Z,10.80
2018-05-10T00:40:02.443Z,10.90
2018-05-10T00:42:30.701Z,10.90
2018-05-10T00:44:58.218Z,11.60
2018-05-10T00:47:25.771Z,11.40
2018-05-10T00:52:22.185Z,10.40
2018-05-10T00:57:21.115Z,10.60
2018-05-10T00:59:49.011Z,10.20
2018-05-10T01:02:16.512Z,11.10
2018-05-10T01:04:44.549Z,10.30
2018-05-10T01:07:12.073Z,10.50
2018-05-10T01:09:40.331Z,10.60
2018-05-10T01:12:08.590Z,10.40
2018-05-10T01:14:36.103Z,10.90
2018-05-10T01:17:03.608Z,10.90
2018-05-10T01:19:31.127Z,10.80
2018-05-10T01:21:58.629Z,10.20
2018-05-10T01:24:26.226Z,9.70
2018-05-10T01:26:54.494Z,10.30
2018-05-10T01:29:22.067Z,10.30
2018-05-10T01:34:18.428Z,10.10
2018-05-10T01:36:45.957Z,10.50
2018-05-10T01:39:13.936Z,10.00
2018-05-10T01:41:41.852Z,10.00
2018-05-10T01:44:09.343Z,9.20
2018-05-10T01:46:37.632Z,10.10
2018-05-10T01:49:05.916Z,10.00
2018-05-10T01:54:03.067Z,10.00
2018-05-10T01:56:31.057Z,9.90
2018-05-10T01:58:58.604Z,9.90
2018-05-10T02:01:26.892Z,10.10
2018-05-10T02:06:23.289Z,10.60
2018-05-10T02:08:50.799Z,9.10
2018-05-10T02:11:18.315Z,9.30
2018-05-10T02:13:45.823Z,9.90
2018-05-10T02:16:13.352Z,10.00
2018-05-10T02:18:41.632Z,10.10
2018-05-10T02:21:09.895Z,9.30
2018-05-10T02:23:37.502Z,10.30
2018-05-10T02:26:05.439Z,10.10
2018-05-10T02:28:33.710Z,10.10
2018-05-10T02:31:02.001Z,10.20
2018-05-10T02:33:30.270Z,10.10
2018-05-10T02:35:58.190Z,10.20
2018-05-10T02:38:26.090Z,10.20
2018-05-10T02:40:53.626Z,10.50
2018-05-10T02:43:21.153Z,10.70
2018-05-10T02:45:48.678Z,9.80
2018-05-10T02:50:45.067Z,10.30
2018-05-10T02:53:14.193Z,10.20
2018-05-10T02:55:41.707Z,10.30
2018-05-10T02:58:09.239Z,10.30
2018-05-10T03:00:37.514Z,10.80
2018-05-10T03:03:05.824Z,10.30
2018-05-10T03:05:34.096Z,10.30
2018-05-10T03:08:02.388Z,10.20
2018-05-10T03:10:29.876Z,9.40
2018-05-10T03:12:57.490Z,10.10
2018-05-10T03:20:22.740Z,10.60
2018-05-10T03:22:50.242Z,8.80
2018-05-10T03:25:17.758Z,10.00
2018-05-10T03:27:45.658Z,10.20
2018-05-10T03:30:13.274Z,9.40
2018-05-10T03:32:41.539Z,9.30
2018-05-10T03:37:37.971Z,10.20
2018-05-10T03:40:05.627Z,10.00
2018-05-10T03:42:33.097Z,10.00
2018-05-10T03:45:00.982Z,9.70
2018-05-10T03:47:29.260Z,9.70
2018-05-10T03:49:57.512Z,9.70
2018-05-10T03:52:25.015Z,10.10
2018-05-10T03:54:53.275Z,9.80
2018-05-10T03:57:21.177Z,9.90
2018-05-10T04:02:18.337Z,9.70
2018-05-10T04:04:58.257Z,10.00
2018-05-10T04:07:37.755Z,10.40
2018-05-10T04:10:17.174Z,9.80
2018-05-10T04:12:44.693Z,9.60
2018-05-10T04:15:12.979Z,9.60
2018-05-10T04:17:40.536Z,9.50
2018-05-10T04:20:08.806Z,9.50
2018-05-10T04:22:37.071Z,9.40
2018-05-10T04:25:04.989Z,9.40
2018-05-10T04:27:32.477Z,8.90
2018-05-10T04:29:59.983Z,11.50
2018-05-10T04:32:27.488Z,9.50
2018-05-10T04:34:56.517Z,9.40
2018-05-10T04:37:24.503Z,11.30
2018-05-10T04:39:52.404Z,9.10
2018-05-10T04:42:19.994Z,9.10
2018-05-10T04:44:47.826Z,9.60
2018-05-10T04:47:15.359Z,9.70
2018-05-10T04:49:42.852Z,9.50
2018-05-10T04:52:10.391Z,9.70
2018-05-10T04:54:37.889Z,9.70
2018-05-10T04:57:05.789Z,8.80
2018-05-10T04:59:34.070Z,9.70
2018-05-10T05:02:01.644Z,9.30
2018-05-10T05:04:29.147Z,10.30
2018-05-10T05:06:57.404Z,9.70
2018-05-10T05:09:25.681Z,9.70
2018-05-10T05:11:53.968Z,9.80
2018-05-10T05:14:21.485Z,10.80
2018-05-10T05:16:49.753Z,10.00
2018-05-10T05:19:17.279Z,10.60
2018-05-10T05:21:44.871Z,10.60
2018-05-10T05:24:13.135Z,10.30
2018-05-10T05:26:41.432Z,10.40
2018-05-10T05:29:08.987Z,11.30
2018-05-10T05:31:36.499Z,10.50
2018-05-10T05:34:03.987Z,9.50
2018-05-10T05:36:31.620Z,10.70
2018-05-10T05:38:59.475Z,11.10
2018-05-10T05:41:27.041Z,10.70
2018-05-10T05:43:54.481Z,11.10
2018-05-10T05:46:22.427Z,11.60
2018-05-10T05:48:50.786Z,11.60
2018-05-10T05:51:19.134Z,11.80
2018-05-10T05:53:47.784Z,11.90
2018-05-10T05:56:15.337Z,12.00
2018-05-10T05:58:42.913Z,13.20
2018-05-10T06:01:10.810Z,13.10
2018-05-10T06:03:38.427Z,12.20
2018-05-10T06:06:05.982Z,12.90
2018-05-10T06:08:34.305Z,12.40
2018-05-10T06:11:01.803Z,12.20
2018-05-10T06:13:30.076Z,12.70
2018-05-10T06:15:58.000Z,13.50
2018-05-10T06:18:25.921Z,13.10
2018-05-10T06:20:53.912Z,12.30
2018-05-10T06:23:21.416Z,14.10
2018-05-10T06:25:48.926Z,16.30
2018-05-10T06:28:16.430Z,14.80
2018-05-10T06:30:43.950Z,15.80
2018-05-10T06:33:11.443Z,13.80
2018-05-10T06:35:38.969Z,15.70
2018-05-10T06:38:06.488Z,16.20
2018-05-10T06:40:34.750Z,16.10
2018-05-10T06:43:02.282Z,16.30
2018-05-10T06:45:29.802Z,15.90
2018-05-10T06:47:57.309Z,17.20
2018-05-10T06:50:24.820Z,17.90
2018-05-10T06:52:52.333Z,18.10
2018-05-10T06:55:19.823Z,18.50
2018-05-10T06:57:48.103Z,17.90
2018-05-10T07:00:16.369Z,17.90
2018-05-10T07:02:44.673Z,18.10
2018-05-10T07:05:12.162Z,18.50
2018-05-10T07:07:39.650Z,19.00
2018-05-10T07:10:07.163Z,18.20
2018-05-10T07:12:34.663Z,18.20
2018-05-10T07:15:02.180Z,18.90
2018-05-10T07:17:29.691Z,18.00
2018-05-10T07:19:57.974Z,18.10
2018-05-10T07:22:26.225Z,18.00
2018-05-10T07:24:53.739Z,18.20
2018-05-10T07:27:21.269Z,17.90
2018-05-10T07:29:48.777Z,18.00
2018-05-10T07:32:16.273Z,18.00
2018-05-10T07:34:43.783Z,17.60
2018-05-10T07:37:11.295Z,18.10
2018-05-10T07:39:39.613Z,18.30
2018-05-10T07:42:07.926Z,18.60
2018-05-10T07:44:35.419Z,19.60
2018-05-10T07:47:03.715Z,19.30
2018-05-10T07:49:31.178Z,19.90
2018-05-10T07:51:58.675Z,20.40
2018-05-10T07:54:26.163Z,19.60
2018-05-10T07:56:54.431Z,20.00
2018-05-10T07:59:21.954Z,20.60
2018-05-10T08:01:50.226Z,20.80
2018-05-10T08:04:18.876Z,21.20
2018-05-10T08:06:47.153Z,21.40
2018-05-10T08:09:15.450Z,21.50
2018-05-10T08:11:42.955Z,22.50
2018-05-10T08:14:11.229Z,21.50
2018-05-10T08:16:39.155Z,21.80
2018-05-10T08:19:06.653Z,21.00
2018-05-10T08:21:34.168Z,21.70
2018-05-10T08:24:01.663Z,22.50
2018-05-10T08:26:29.197Z,23.10
2018-05-10T08:28:57.462Z,22.90
2018-05-10T08:31:24.963Z,23.50
2018-05-10T08:33:52.487Z,22.30
2018-05-10T08:36:20.392Z,22.00
2018-05-10T08:38:48.014Z,23.50
2018-05-10T08:41:15.512Z,22.70
2018-05-10T08:43:43.423Z,22.60
2018-05-10T08:46:10.911Z,23.90
2018-05-10T08:48:38.429Z,23.00
2018-05-10T08:51:06.713Z,23.30
2018-05-10T08:53:34.237Z,23.10
2018-05-10T08:56:02.510Z,23.20
2018-05-10T08:58:30.010Z,23.00
2018-05-10T09:00:57.539Z,22.70
2018-05-10T09:03:25.041Z,22.30
2018-05-10T09:05:53.325Z,22.30
2018-05-10T09:08:20.830Z,22.80
2018-05-10T09:10:48.343Z,22.30
2018-05-10T09:13:15.847Z,24.30
2018-05-10T09:15:43.773Z,24.40
2018-05-10T09:18:11.266Z,25.30
2018-05-10T09:20:39.155Z,24.60
2018-05-10T09:23:07.413Z,24.80
2018-05-10T09:25:35.313Z,24.60
2018-05-10T09:28:03.589Z,23.90
2018-05-10T09:30:31.855Z,23.70
2018-05-10T09:33:00.124Z,23.90
2018-05-10T09:35:28.381Z,23.70
2018-05-10T09:37:55.906Z,23.70
2018-05-10T09:40:23.405Z,23.50
2018-05-10T09:42:50.956Z,23.80
2018-05-10T09:45:19.972Z,23.60
2018-05-10T09:47:48.206Z,24.20
2018-05-10T09:50:15.707Z,25.60
2018-05-10T09:52:44.037Z,24.80
2018-05-10T09:55:11.579Z,25.30
2018-05-10T09:57:39.080Z,24.90
2018-05-10T10:00:06.612Z,26.50
2018-05-10T10:02:34.111Z,24.20
2018-05-10T10:05:02.060Z,24.70
2018-05-10T10:07:29.588Z,23.50
2018-05-10T10:09:57.100Z,24.50
2018-05-10T10:12:24.614Z,25.20
2018-05-10T10:14:52.136Z,24.50
2018-05-10T10:17:20.432Z,25.20
2018-05-10T10:19:47.950Z,25.90
2018-05-10T10:22:15.494Z,24.20
2018-05-10T10:24:43.000Z,25.30
2018-05-10T10:27:11.303Z,25.90
2018-05-10T10:29:39.578Z,26.40
2018-05-10T10:32:07.095Z,27.10
2018-05-10T10:34:35.409Z,27.10
2018-05-10T10:37:02.909Z,27.60
2018-05-10T10:39:30.443Z,27.20
2018-05-10T10:41:57.943Z,27.80
2018-05-10T10:44:25.904Z,28.60
2018-05-10T10:46:53.423Z,28.60
2018-05-10T10:49:20.921Z,26.90
2018-05-10T10:51:48.466Z,27.90
2018-05-10T10:54:15.966Z,27.00
2018-05-10T10:56:44.238Z,27.20
2018-05-10T10:59:12.143Z,27.10
2018-05-10T11:01:40.574Z,27.30
2018-05-10T11:04:08.072Z,26.50
2018-05-10T11:06:35.600Z,27.10
2018-05-10T11:09:03.894Z,26.00
2018-05-10T11:11:31.807Z,25.40
2018-05-10T11:13:59.341Z,25.50
2018-05-10T11:16:26.836Z,24.00
2018-05-10T11:18:56.833Z,26.00
2018-05-10T11:21:24.325Z,27.00
2018-05-10T11:23:51.852Z,27.10
2018-05-10T11:26:19.372Z,27.20
2018-05-10T11:28:46.869Z,26.90
2018-05-10T11:31:14.375Z,26.30
2018-05-10T11:33:42.648Z,25.70
2018-05-10T11:36:10.933Z,25.10
2018-05-10T11:38:38.451Z,24.60
2018-05-10T11:41:06.361Z,24.40
2018-05-10T11:43:34.658Z,24.30
2018-05-10T11:46:02.205Z,26.20
2018-05-10T11:48:30.428Z,24.20
2018-05-10T11:50:59.445Z,24.00
2018-05-10T11:53:26.999Z,24.10
2018-05-10T11:55:54.521Z,23.60
2018-05-10T11:58:22.435Z,25.00
2018-05-10T12:00:50.003Z,23.60
2018-05-10T12:03:18.273Z,23.50
2018-05-10T12:05:45.782Z,23.40
2018-05-10T12:08:13.283Z,24.30
2018-05-10T12:10:40.834Z,24.20
2018-05-10T12:13:09.100Z,23.60
2018-05-10T12:15:36.635Z,21.80
2018-05-10T12:18:04.171Z,23.30
2018-05-10T12:20:32.525Z,23.00
2018-05-10T12:23:00.793Z,22.60
2018-05-10T12:25:28.387Z,22.80
2018-05-10T12:27:55.899Z,23.50
2018-05-10T12:30:23.437Z,23.10
2018-05-10T12:32:51.319Z,22.70
2018-05-10T12:35:18.818Z,23.50
2018-05-10T12:37:46.737Z,23.20
2018-05-10T12:40:15.024Z,23.30
2018-05-10T12:42:42.543Z,22.50
2018-05-10T12:45:10.037Z,22.10
2018-05-10T12:47:38.320Z,23.40
2018-05-10T12:50:05.819Z,23.70
2018-05-10T12:52:34.084Z,23.20
2018-05-10T12:55:02.363Z,23.50
2018-05-10T12:57:29.877Z,23.70
2018-05-10T12:59:57.399Z,24.40
2018-05-10T13:02:25.295Z,23.50
2018-05-10T13:04:52.830Z,23.90
2018-05-10T13:07:20.322Z,22.80
2018-05-10T13:09:47.849Z,24.00
2018-05-10T13:12:15.738Z,23.60
2018-05-10T13:14:43.239Z,23.60
2018-05-10T13:17:10.765Z,23.40
2018-05-10T13:19:38.676Z,23.60
2018-05-10T13:22:06.972Z,23.60
2018-05-10T13:24:34.500Z,23.60
2018-05-10T13:27:02.439Z,23.40
2018-05-10T13:29:29.938Z,23.80
2018-05-10T13:31:58.221Z,23.50
2018-05-10T13:34:26.536Z,23.40
2018-05-10T13:36:54.017Z,23.30
2018-05-10T13:39:22.302Z,23.60
2018-05-10T13:41:50.216Z,23.80
2018-05-10T13:44:17.768Z,23.80
2018-05-10T13:46:46.042Z,24.00
2018-05-10T13:49:14.317Z,24.00
2018-05-10T13:51:42.246Z,24.10
2018-05-10T13:54:09.761Z,24.50
2018-05-10T13:56:37.282Z,24.50
2018-05-10T13:59:04.958Z,24.60
2018-05-10T14:04:01.662Z,24.30
2018-05-10T14:06:29.154Z,24.30
2018-05-10T14:08:56.676Z,25.10
2018-05-10T14:11:24.183Z,24.70
2018-05-10T14:13:51.710Z,25.00
2018-05-10T14:16:19.215Z,24.80
2018-05-10T14:18:47.494Z,24.50
2018-05-10T14:21:15.758Z,24.20
2018-05-10T14:23:44.030Z,23.90
2018-05-10T14:26:12.192Z,22.50
2018-05-10T14:28:39.694Z,24.90
2018-05-10T14:31:07.602Z,23.70
2018-05-10T14:33:35.503Z,24.10
2018-05-10T14:36:03.784Z,24.30
2018-05-10T14:38:32.084Z,24.20
2018-05-10T14:41:00.012Z,23.60
2018-05-10T14:43:27.522Z,24.40
2018-05-10T14:45:55.028Z,23.30
2018-05-10T14:48:22.570Z,24.80
2018-05-10T14:50:50.072Z,23.10
2018-05-10T14:53:18.353Z,23.10
2018-05-10T14:55:46.675Z,22.80
2018-05-10T14:58:14.218Z,22.40
2018-05-10T15:00:41.738Z,22.40
2018-05-10T15:03:09.991Z,22.40
2018-05-10T15:05:37.521Z,22.00
2018-05-10T15:08:05.791Z,22.00
2018-05-10T15:10:33.315Z,21.80
2018-05-10T15:13:01.613Z,21.70
2018-05-10T15:15:29.134Z,21.00
2018-05-10T15:17:56.667Z,20.60
2018-05-10T15:20:24.159Z,20.60
2018-05-10T15:22:52.468Z,20.90
2018-05-10T15:25:19.961Z,19.80
2018-05-10T15:27:47.498Z,20.50
2018-05-10T15:30:15.021Z,20.80
2018-05-10T15:32:43.637Z,19.70
2018-05-10T15:35:11.567Z,18.30
2018-05-10T15:37:39.457Z,19.10
2018-05-10T15:40:07.382Z,18.80
2018-05-10T15:42:34.874Z,18.50
2018-05-10T15:45:02.843Z,19.50
2018-05-10T15:47:31.117Z,18.30
2018-05-10T15:49:59.396Z,18.20
2018-05-10T15:52:27.679Z,18.20
2018-05-10T15:54:55.951Z,18.30
2018-05-10T15:57:24.237Z,18.20
2018-05-10T15:59:52.140Z,18.70
2018-05-10T16:02:19.693Z,18.50
2018-05-10T16:04:47.195Z,18.40
2018-05-10T16:07:15.107Z,18.10
2018-05-10T16:09:42.641Z,17.90
2018-05-10T16:12:10.582Z,19.00
2018-05-10T16:14:38.108Z,18.10
2018-05-10T16:17:05.613Z,18.50
2018-05-10T16:19:33.168Z,18.50
2018-05-10T16:22:01.464Z,18.30
2018-05-10T16:24:29.776Z,18.40
2018-05-10T16:26:57.273Z,17.70
2018-05-10T16:29:24.875Z,18.30
2018-05-10T16:31:52.790Z,18.50
2018-05-10T16:34:20.420Z,17.40
2018-05-10T16:36:47.977Z,17.40
2018-05-10T16:39:15.535Z,18.30
2018-05-10T16:41:43.069Z,17.50
2018-05-10T16:44:11.375Z,18.70
2018-05-10T16:46:39.653Z,18.80
2018-05-10T16:49:07.207Z,17.20
2018-05-10T16:51:35.187Z,19.00
2018-05-10T16:54:02.684Z,19.00
2018-05-10T16:56:30.178Z,17.70
2018-05-10T16:58:57.739Z,19.10
2018-05-10T17:01:25.647Z,19.30
2018-05-10T17:03:53.934Z,19.50
2018-05-10T17:06:22.233Z,19.50
2018-05-10T17:08:50.531Z,19.40
2018-05-10T17:11:18.835Z,19.40
2018-05-10T17:13:46.357Z,19.00
2018-05-10T17:16:14.305Z,20.30
2018-05-10T17:18:41.841Z,20.30
2018-05-10T17:21:09.365Z,19.70
2018-05-10T17:23:38.347Z,19.70
2018-05-10T17:26:05.871Z,19.90
2018-05-10T17:28:33.381Z,20.50
2018-05-10T17:31:01.343Z,19.80
2018-05-10T17:33:28.917Z,20.60
2018-05-10T17:35:56.678Z,19.90
2018-05-10T17:38:24.123Z,19.60
2018-05-10T17:40:51.701Z,19.50
2018-05-10T17:43:19.210Z,19.50
2018-05-10T17:45:46.737Z,19.30
2018-05-10T17:48:14.691Z,19.50
2018-05-10T17:50:42.241Z,19.70
2018-05-10T17:53:10.358Z,19.70
2018-05-10T17:55:37.865Z,18.00
2018-05-10T17:58:05.423Z,19.30
2018-05-10T18:00:33.716Z,18.90
2018-05-10T18:03:01.686Z,19.20
2018-05-10T18:05:30.030Z,19.10
2018-05-10T18:07:58.344Z,19.00
2018-05-10T18:10:26.666Z,19.20
2018-05-10T18:12:54.200Z,19.20
2018-05-10T18:15:23.011Z,18.60
2018-05-10T18:17:50.531Z,17.70
2018-05-10T18:20:19.213Z,18.50
2018-05-10T18:22:46.762Z,18.50
2018-05-10T18:25:14.404Z,18.60
2018-05-10T18:27:43.125Z,18.20
2018-05-10T18:30:11.444Z,18.10
2018-05-10T18:32:39.654Z,20.00
2018-05-10T18:37:36.107Z,16.60
2018-05-10T18:40:04.392Z,18.20
2018-05-10T18:42:33.293Z,18.70
2018-05-10T18:45:02.329Z,17.80
2018-05-10T18:47:29.870Z,18.40
2018-05-10T18:49:57.403Z,16.50
2018-05-10T18:52:25.346Z,17.80
2018-05-10T18:54:55.020Z,17.80
2018-05-10T18:57:24.811Z,17.80
2018-05-10T18:59:53.044Z,19.90
2018-05-10T19:02:20.998Z,18.00
2018-05-10T19:04:49.909Z,17.00
2018-05-10T19:07:18.215Z,17.90
2018-05-10T19:09:47.410Z,17.80
2018-05-10T19:12:17.164Z,17.80
2018-05-10T19:14:45.471Z,17.70
2018-05-10T19:17:14.583Z,17.70
2018-05-10T19:19:42.513Z,17.70
2018-05-10T19:22:11.507Z,17.60
2018-05-10T19:24:41.836Z,18.40
2018-05-10T19:29:38.437Z,17.00
2018-05-10T19:32:07.086Z,17.40
2018-05-10T19:34:35.375Z,17.30
2018-05-10T19:37:04.695Z,17.00
2018-05-10T19:39:33.179Z,17.30
2018-05-10T19:42:00.997Z,17.40
2018-05-10T19:44:28.523Z,17.40
2018-05-10T19:46:58.734Z,17.00
2018-05-10T19:49:27.625Z,15.50
2018-05-10T19:51:55.166Z,16.80
2018-05-10T19:54:23.049Z,17.50
2018-05-10T19:56:54.623Z,16.90
2018-05-10T19:59:23.967Z,16.30
2018-05-10T20:01:52.995Z,16.90
2018-05-10T20:04:20.753Z,16.80
2018-05-10T20:06:49.445Z,17.00
2018-05-10T20:09:19.141Z,17.00
2018-05-10T20:14:16.258Z,16.70
2018-05-10T20:16:43.825Z,17.20
2018-05-10T20:19:11.357Z,16.90
2018-05-10T20:21:39.696Z,16.90
2018-05-10T20:24:08.561Z,16.90
2018-05-10T20:26:36.798Z,16.90
2018-05-10T20:29:04.819Z,16.90
2018-05-10T20:31:33.133Z,17.80
2018-05-10T20:34:00.759Z,15.10
2018-05-10T20:36:29.387Z,16.70
2018-05-10T20:38:57.894Z,16.50
2018-05-10T20:41:27.003Z,16.60
2018-05-10T20:43:54.919Z,15.90
2018-05-10T20:46:22.862Z,16.50
2018-05-10T20:48:51.163Z,16.40
2018-05-10T20:51:18.679Z,16.50
2018-05-10T20:53:46.195Z,16.80
2018-05-10T20:56:13.838Z,15.90
2018-05-10T20:58:42.107Z,16.20
2018-05-10T21:01:10.421Z,16.20
2018-05-10T21:03:38.809Z,16.10
2018-05-10T21:06:07.163Z,16.20
2018-05-10T21:08:34.699Z,15.20
2018-05-10T21:11:02.249Z,16.10
2018-05-10T21:13:30.619Z,16.00
2018-05-10T21:15:58.899Z,16.00
2018-05-10T21:18:27.227Z,16.00
2018-05-10T21:20:54.716Z,16.20
2018-05-10T21:23:23.774Z,16.10
2018-05-10T21:25:51.273Z,15.90
2018-05-10T21:28:19.551Z,16.20
2018-05-10T21:30:47.071Z,16.40
2018-05-10T21:33:14.577Z,16.40
2018-05-10T21:35:42.515Z,16.30
2018-05-10T21:38:10.033Z,16.60
2018-05-10T21:40:38.305Z,16.10
2018-05-10T21:43:06.565Z,16.10
2018-05-10T21:45:34.832Z,16.10
2018-05-10T21:48:02.765Z,16.10
2018-05-10T21:50:30.274Z,15.90
2018-05-10T21:52:58.178Z,15.90
2018-05-10T21:55:25.687Z,15.70
2018-05-10T21:57:53.588Z,15.70
2018-05-10T22:00:21.109Z,15.80
2018-05-10T22:02:48.714Z,15.60
2018-05-10T22:05:16.626Z,15.80
2018-05-10T22:07:44.147Z,15.50
2018-05-10T22:10:11.695Z,15.70
2018-05-10T22:12:39.208Z,14.80
2018-05-10T22:15:07.847Z,15.00
2018-05-10T22:17:35.776Z,15.00
2018-05-10T22:20:03.380Z,14.70
2018-05-10T22:22:32.592Z,14.40
2018-05-10T22:25:00.110Z,13.70
2018-05-10T22:27:28.384Z,13.80
2018-05-10T22:29:56.768Z,13.60
2018-05-10T22:32:24.198Z,13.80
2018-05-10T22:34:52.841Z,13.30
2018-05-10T22:37:20.342Z,12.90
2018-05-10T22:39:49.005Z,13.10
2018-05-10T22:42:16.528Z,12.50
2018-05-10T22:44:44.043Z,12.70
2018-05-10T22:47:11.551Z,12.50
2018-05-10T22:49:39.827Z,12.80
2018-05-10T22:52:07.429Z,12.90
2018-05-10T22:54:35.654Z,12.80
2018-05-10T22:57:03.557Z,12.70
2018-05-10T22:59:31.094Z,12.00
2018-05-10T23:01:58.643Z,12.30
2018-05-10T23:04:26.164Z,12.80
2018-05-10T23:06:53.688Z,12.80
2018-05-10T23:09:22.330Z,12.30
2018-05-10T23:14:19.460Z,12.20
2018-05-10T23:16:47.752Z,12.10
2018-05-10T23:19:15.252Z,12.00
2018-05-10T23:21:43.146Z,11.70
2018-05-10T23:29:09.684Z,11.70
2018-05-10T23:31:37.581Z,11.30
2018-05-10T23:34:05.087Z,11.10
2018-05-10T23:36:33.722Z,11.90
2018-05-10T23:39:01.240Z,10.60
2018-05-10T23:41:29.517Z,11.90
2018-05-10T23:43:57.437Z,11.80
2018-05-10T23:46:24.931Z,11.30
2018-05-10T23:48:53.200Z,11.80
2018-05-10T23:51:20.791Z,10.60
2018-05-10T23:53:48.286Z,11.50
2018-05-10T23:58:45.115Z,11.60
